Terminal Aerodrome Forecast
Issued by NWS

Current Version | Previous Version | Text Only | Print | Product List | Glossary On
Versions: 1 2 3 4 5 6 7 8 9 10 11 12 13 14 15 16 17 18 19
000
FTUS46 KSEW 190500
TAFBLI
TAF
KBLI 190520Z 1906/2006 VRB04KT P6SM SCT250
     FM190800 04004KT P6SM BKN120 OVC200
     FM191600 16010KT P6SM BKN060 OVC100
     FM192000 17013KT P6SM -RA BKN045 OVC060
     FM192200 18012KT P6SM -SHRA BKN045 BKN060
     FM200400 16010KT P6SM -SHRA BKN045 BKN060=

USA.gov is the U.S. government's official web portal to all federal, state and local government web resources and services.